createdAt,value
2022-12-01T00:01:14.851Z,11.70
2022-12-01T00:03:41.925Z,13.82
2022-12-01T00:06:15.901Z,13.00
2022-12-01T00:09:02.971Z,11.77
2022-12-01T00:11:29.919Z,13.40
2022-12-01T00:13:56.662Z,13.57
2022-12-01T00:16:23.612Z,13.60
2022-12-01T00:18:52.523Z,15.27
2022-12-01T00:21:22.012Z,14.15
2022-12-01T00:23:51.172Z,17.38
2022-12-01T00:26:19.172Z,20.90
2022-12-01T00:28:54.264Z,15.95
2022-12-01T00:31:21.679Z,19.27
2022-12-01T00:33:49.735Z,17.35
2022-12-01T00:36:16.481Z,13.93
2022-12-01T00:38:43.279Z,11.68
2022-12-01T00:41:10.095Z,11.10
2022-12-01T00:43:36.865Z,15.32
2022-12-01T00:46:04.107Z,14.05
2022-12-01T00:48:30.982Z,15.32
2022-12-01T00:50:57.872Z,11.95
2022-12-01T00:53:24.899Z,10.95
2022-12-01T00:55:54.131Z,13.38
2022-12-01T00:58:21.632Z,14.82
2022-12-01T01:00:48.647Z,14.50
2022-12-01T01:03:15.704Z,12.85
2022-12-01T01:05:43.072Z,11.50
2022-12-01T01:08:12.241Z,13.02
2022-12-01T01:10:43.134Z,14.27
2022-12-01T01:13:10.231Z,17.90
2022-12-01T01:15:37.891Z,14.00
2022-12-01T01:18:05.511Z,14.18
2022-12-01T01:20:33.001Z,14.48
2022-12-01T01:22:59.867Z,15.05
2022-12-01T01:25:26.827Z,13.93
2022-12-01T01:27:53.611Z,17.13
2022-12-01T01:30:20.814Z,14.30
2022-12-01T01:32:47.626Z,14.18
2022-12-01T01:35:14.454Z,13.95
2022-12-01T01:37:41.238Z,17.63
2022-12-01T01:40:08.510Z,12.23
2022-12-01T01:42:35.416Z,13.95
2022-12-01T01:45:02.226Z,14.63
2022-12-01T01:47:36.893Z,14.43
2022-12-01T01:50:13.463Z,13.90
2022-12-01T01:52:48.774Z,10.32
2022-12-01T01:55:16.442Z,10.55
2022-12-01T01:57:45.056Z,10.52
2022-12-01T02:00:18.993Z,12.57
2022-12-01T02:02:47.573Z,13.95
2022-12-01T02:05:22.744Z,15.13
2022-12-01T02:07:51.975Z,14.52
2022-12-01T02:10:22.682Z,23.83
2022-12-01T02:13:08.393Z,15.85
2022-12-01T02:16:03.761Z,15.85
2022-12-01T02:18:42.576Z,21.20
2022-12-01T02:21:28.514Z,17.27
2022-12-01T02:24:13.277Z,19.05
2022-12-01T02:26:46.019Z,14.35
2022-12-01T02:29:43.547Z,14.68
2022-12-01T02:32:18.819Z,12.48
2022-12-01T02:34:48.627Z,15.70
2022-12-01T02:37:32.799Z,13.98
2022-12-01T02:40:20.549Z,13.02
2022-12-01T02:42:59.863Z,15.73
2022-12-01T02:45:37.261Z,17.33
2022-12-01T02:48:10.005Z,13.07
2022-12-01T02:50:39.906Z,12.82
2022-12-01T02:53:10.378Z,12.93
2022-12-01T02:55:37.166Z,12.05
2022-12-01T02:58:14.086Z,11.05
2022-12-01T03:00:52.114Z,15.23
2022-12-01T03:03:33.021Z,13.07
2022-12-01T03:06:14.539Z,10.00
2022-12-01T03:08:51.521Z,9.57
2022-12-01T03:11:28.942Z,11.45
2022-12-01T03:14:18.608Z,10.68
2022-12-01T03:16:50.963Z,11.68
2022-12-01T03:19:32.857Z,11.52
2022-12-01T03:22:12.574Z,10.73
2022-12-01T03:24:43.683Z,11.07
2022-12-01T03:27:14.123Z,11.70
2022-12-01T03:29:45.393Z,8.60
2022-12-01T03:34:59.463Z,11.25
2022-12-01T03:37:37.962Z,9.93
2022-12-01T03:40:12.042Z,12.27
2022-12-01T03:42:48.071Z,14.10
2022-12-01T03:45:24.475Z,8.73
2022-12-01T03:47:51.802Z,8.25
2022-12-01T03:50:19.056Z,13.40
2022-12-01T03:53:26.612Z,11.50
2022-12-01T03:56:01.654Z,10.27
2022-12-01T03:58:36.500Z,15.18
2022-12-01T04:01:05.094Z,13.23
2022-12-01T04:03:31.952Z,12.13
2022-12-01T04:05:59.335Z,10.52
2022-12-01T04:08:26.391Z,11.18
2022-12-01T04:10:53.184Z,9.13
2022-12-01T04:13:23.353Z,10.35
2022-12-01T04:15:51.433Z,12.98
2022-12-01T04:18:19.225Z,11.38
2022-12-01T04:20:47.251Z,14.18
2022-12-01T04:23:34.013Z,12.95
2022-12-01T04:26:02.989Z,13.52
2022-12-01T04:28:29.938Z,10.93
2022-12-01T04:30:56.736Z,15.00
2022-12-01T04:33:23.448Z,16.02
2022-12-01T04:35:58.062Z,14.95
2022-12-01T04:38:30.044Z,12.15
2022-12-01T04:40:57.593Z,11.25
2022-12-01T04:43:24.358Z,13.60
2022-12-01T04:45:51.092Z,12.55
2022-12-01T04:48:17.805Z,13.00
2022-12-01T04:50:44.541Z,13.60
2022-12-01T04:53:11.337Z,12.93
2022-12-01T04:55:39.210Z,11.35
2022-12-01T04:58:06.319Z,11.75
2022-12-01T05:00:33.805Z,11.52
2022-12-01T05:03:00.991Z,12.48
2022-12-01T05:05:27.755Z,11.77
2022-12-01T05:07:54.680Z,11.30
2022-12-01T05:10:22.385Z,13.13
2022-12-01T05:12:49.662Z,12.95
2022-12-01T05:15:17.473Z,12.43
2022-12-01T05:17:44.652Z,9.38
2022-12-01T05:20:37.738Z,8.55
2022-12-01T05:23:06.076Z,10.75
2022-12-01T05:25:33.539Z,11.70
2022-12-01T05:28:00.449Z,11.52
2022-12-01T05:30:28.949Z,9.30
2022-12-01T05:32:56.004Z,8.98
2022-12-01T05:35:22.868Z,9.38
2022-12-01T05:37:49.885Z,14.10
2022-12-01T05:40:16.628Z,11.48
2022-12-01T05:42:43.647Z,13.60
2022-12-01T05:45:10.689Z,12.85
2022-12-01T05:47:37.473Z,9.70
2022-12-01T05:50:05.997Z,14.98
2022-12-01T05:52:36.156Z,15.25
2022-12-01T05:55:04.226Z,10.90
2022-12-01T05:57:32.673Z,16.10
2022-12-01T06:00:00.152Z,12.43
2022-12-01T06:02:27.059Z,11.35
2022-12-01T06:04:53.982Z,10.30
2022-12-01T06:07:22.455Z,10.15
2022-12-01T06:09:49.972Z,10.90
2022-12-01T06:12:17.293Z,9.30
2022-12-01T06:14:44.400Z,9.48
2022-12-01T06:17:11.791Z,11.00
2022-12-01T06:19:39.316Z,8.93
2022-12-01T06:22:06.158Z,9.65
2022-12-01T06:24:32.999Z,10.43
2022-12-01T06:26:59.745Z,11.52
2022-12-01T06:29:26.680Z,8.73
2022-12-01T06:31:53.449Z,11.00
2022-12-01T06:34:20.306Z,10.43
2022-12-01T06:36:47.020Z,9.82
2022-12-01T06:39:16.023Z,11.63
2022-12-01T06:41:43.094Z,13.88
2022-12-01T06:44:10.612Z,12.20
2022-12-01T06:46:37.934Z,9.40
2022-12-01T06:49:04.819Z,11.50
2022-12-01T06:51:33.913Z,14.30
2022-12-01T06:54:05.280Z,11.20
2022-12-01T06:56:32.504Z,10.93
2022-12-01T06:58:59.567Z,10.65
2022-12-01T07:01:26.803Z,12.75
2022-12-01T07:03:53.659Z,12.43
2022-12-01T07:06:20.770Z,12.65
2022-12-01T07:08:47.631Z,16.40
2022-12-01T07:11:15.757Z,13.23
2022-12-01T07:13:46.647Z,30.73
2022-12-01T07:16:13.467Z,20.45
2022-12-01T07:18:40.648Z,21.42
2022-12-01T07:21:12.519Z,21.67
2022-12-01T07:23:40.017Z,24.63
2022-12-01T07:26:10.434Z,24.00
2022-12-01T07:28:37.234Z,18.38
2022-12-01T07:31:09.388Z,17.27
2022-12-01T07:33:36.736Z,11.90
2022-12-01T07:36:04.993Z,17.73
2022-12-01T07:38:32.995Z,12.65
2022-12-01T07:41:04.660Z,18.40
2022-12-01T07:43:32.724Z,14.15
2022-12-01T07:46:22.297Z,16.83
2022-12-01T07:48:50.222Z,14.00
2022-12-01T07:51:17.719Z,14.70
2022-12-01T07:53:46.420Z,15.38
2022-12-01T07:56:13.738Z,14.57
2022-12-01T07:58:41.400Z,14.68
2022-12-01T08:01:18.908Z,17.50
2022-12-01T08:03:47.567Z,13.48
2022-12-01T08:06:14.250Z,11.63
2022-12-01T08:08:41.919Z,14.77
2022-12-01T08:11:17.024Z,12.73
2022-12-01T08:13:44.054Z,18.05
2022-12-01T08:16:14.202Z,13.63
2022-12-01T08:18:42.066Z,15.65
2022-12-01T08:21:14.351Z,14.65
2022-12-01T08:23:42.254Z,17.27
2022-12-01T08:26:15.226Z,13.02
2022-12-01T08:28:42.850Z,13.35
2022-12-01T08:31:22.609Z,14.70
2022-12-01T08:33:50.717Z,15.10
2022-12-01T08:36:20.227Z,13.73
2022-12-01T08:38:49.120Z,16.00
2022-12-01T08:41:16.231Z,13.38
2022-12-01T08:44:01.051Z,16.58
2022-12-01T08:46:31.597Z,18.90
2022-12-01T08:48:58.583Z,20.80
2022-12-01T08:51:26.345Z,27.40
2022-12-01T08:53:55.761Z,22.70
2022-12-01T08:56:28.414Z,16.98
2022-12-01T08:58:55.983Z,13.43
2022-12-01T09:01:23.535Z,15.63
2022-12-01T09:04:05.453Z,17.25
2022-12-01T09:06:39.623Z,22.35
2022-12-01T09:09:08.010Z,21.85
2022-12-01T09:11:34.744Z,26.05
2022-12-01T09:14:01.648Z,31.02
2022-12-01T09:16:28.520Z,29.80
2022-12-01T09:18:55.798Z,24.83
2022-12-01T09:21:33.002Z,25.52
2022-12-01T09:24:01.443Z,16.92
2022-12-01T09:26:28.632Z,21.65
2022-12-01T09:29:01.785Z,20.13
2022-12-01T09:31:28.799Z,17.02
2022-12-01T09:33:57.807Z,20.17
2022-12-01T09:36:25.513Z,22.80
2022-12-01T09:38:52.538Z,19.95
2022-12-01T09:41:21.114Z,25.25
2022-12-01T09:44:15.195Z,25.90
2022-12-01T09:46:52.632Z,22.17
2022-12-01T09:51:54.449Z,20.02
2022-12-01T09:54:21.474Z,19.23
2022-12-01T09:56:53.346Z,19.95
2022-12-01T09:59:26.638Z,17.45
2022-12-01T10:02:01.181Z,16.77
2022-12-01T10:04:27.989Z,22.98
2022-12-01T10:07:13.145Z,20.98
2022-12-01T10:09:49.199Z,19.80
2022-12-01T10:12:18.945Z,17.10
2022-12-01T10:14:48.347Z,17.23
2022-12-01T10:17:20.927Z,22.52
2022-12-01T10:20:35.159Z,16.75
2022-12-01T10:23:10.523Z,17.08
2022-12-01T10:25:55.444Z,18.08
2022-12-01T10:28:27.905Z,15.73
2022-12-01T10:31:04.267Z,17.15
2022-12-01T10:33:39.499Z,15.40
2022-12-01T10:36:07.289Z,13.25
2022-12-01T10:38:36.598Z,11.52
2022-12-01T10:41:06.908Z,11.43
2022-12-01T10:43:44.690Z,9.15
2022-12-01T10:46:25.801Z,14.55
2022-12-01T10:48:58.538Z,12.05
2022-12-01T10:51:26.915Z,11.50
2022-12-01T10:54:07.670Z,9.90
2022-12-01T10:56:35.416Z,10.05
2022-12-01T10:59:15.804Z,12.27
2022-12-01T11:01:48.274Z,9.88
2022-12-01T11:04:45.690Z,10.68
2022-12-01T11:07:24.691Z,12.85
2022-12-01T11:10:04.319Z,9.18
2022-12-01T11:12:32.059Z,16.10
2022-12-01T11:14:59.268Z,9.15
2022-12-01T11:17:43.329Z,9.95
2022-12-01T11:20:30.323Z,13.13
2022-12-01T11:23:18.716Z,20.67
2022-12-01T11:25:59.245Z,14.13
2022-12-01T11:28:26.232Z,17.95
2022-12-01T11:31:02.712Z,6.97
2022-12-01T11:33:32.657Z,8.15
2022-12-01T11:35:59.580Z,9.10
2022-12-01T11:38:34.739Z,10.77
2022-12-01T11:41:01.673Z,6.15
2022-12-01T11:43:37.717Z,9.32
2022-12-01T11:46:09.813Z,7.30
2022-12-01T11:48:36.952Z,8.40
2022-12-01T11:51:29.938Z,7.15
2022-12-01T11:54:18.165Z,7.50
2022-12-01T11:56:46.699Z,6.53
2022-12-01T11:59:15.371Z,6.78
2022-12-01T12:02:18.521Z,8.23
2022-12-01T12:05:18.196Z,8.60
2022-12-01T12:08:05.020Z,10.93
2022-12-01T12:10:59.591Z,6.35
2022-12-01T12:13:35.239Z,7.50
2022-12-01T12:16:26.329Z,5.85
2022-12-01T12:19:52.489Z,5.65
2022-12-01T12:22:38.369Z,7.15
2022-12-01T12:25:16.963Z,7.28
2022-12-01T12:28:09.317Z,5.80
2022-12-01T12:31:14.779Z,7.43
2022-12-01T12:34:14.141Z,8.80
2022-12-01T12:36:52.061Z,5.50
2022-12-01T12:39:22.321Z,4.80
2022-12-01T12:41:54.259Z,6.85
2022-12-01T12:44:37.545Z,5.35
2022-12-01T12:49:40.434Z,5.15
2022-12-01T12:52:18.125Z,6.38
2022-12-01T12:55:01.925Z,5.78
2022-12-01T12:57:44.593Z,5.65
2022-12-01T13:00:21.460Z,6.22
2022-12-01T13:03:10.781Z,8.65
2022-12-01T13:06:10.280Z,6.53
2022-12-01T13:08:57.444Z,6.88
2022-12-01T13:11:32.622Z,10.85
2022-12-01T13:14:07.793Z,11.63
2022-12-01T13:16:39.891Z,18.67
2022-12-01T13:19:22.754Z,14.18
2022-12-01T13:21:52.218Z,26.20
2022-12-01T13:24:23.547Z,21.67
2022-12-01T13:26:55.981Z,19.95
2022-12-01T13:29:25.043Z,50.17
2022-12-01T13:31:54.454Z,51.67
2022-12-01T13:34:42.122Z,69.80
2022-12-01T13:37:12.091Z,47.75
2022-12-01T13:39:41.568Z,14.18
2022-12-01T13:42:23.801Z,88.00
2022-12-01T13:45:02.204Z,22.15
2022-12-01T13:47:38.031Z,12.43
2022-12-01T13:50:53.075Z,9.23
2022-12-01T13:53:19.871Z,8.88
2022-12-01T13:55:58.035Z,10.38
2022-12-01T13:58:41.624Z,7.55
2022-12-01T14:01:21.254Z,7.15
2022-12-01T14:03:56.929Z,8.48
2022-12-01T14:06:38.458Z,8.07
2022-12-01T14:09:14.283Z,7.32
2022-12-01T14:11:54.403Z,12.32
2022-12-01T14:14:26.193Z,8.50
2022-12-01T14:16:58.483Z,9.30
2022-12-01T14:19:52.138Z,7.78
2022-12-01T14:22:33.135Z,8.95
2022-12-01T14:25:00.324Z,8.73
2022-12-01T14:27:45.338Z,9.93
2022-12-01T14:30:42.432Z,9.57
2022-12-01T14:33:40.105Z,10.43
2022-12-01T14:36:26.423Z,7.78
2022-12-01T14:39:00.120Z,7.85
2022-12-01T14:41:39.445Z,8.15
2022-12-01T14:44:11.553Z,10.02
2022-12-01T14:46:52.623Z,10.15
2022-12-01T14:49:28.263Z,12.02
2022-12-01T14:52:00.724Z,11.80
2022-12-01T14:54:35.029Z,11.80
2022-12-01T14:57:07.414Z,10.95
2022-12-01T14:59:35.220Z,8.38
2022-12-01T15:02:09.614Z,6.90
2022-12-01T15:05:06.382Z,12.27
2022-12-01T15:07:42.528Z,7.93
2022-12-01T15:10:36.196Z,9.45
2022-12-01T15:13:24.821Z,18.95
2022-12-01T15:15:54.940Z,19.05
2022-12-01T15:18:42.504Z,13.90
2022-12-01T15:21:17.015Z,18.65
2022-12-01T15:24:01.972Z,15.95
2022-12-01T15:26:49.882Z,15.07
2022-12-01T15:29:31.886Z,13.77
2022-12-01T15:32:21.043Z,21.73
2022-12-01T15:34:51.882Z,17.23
2022-12-01T15:37:24.772Z,22.77
2022-12-01T15:40:00.298Z,26.00
2022-12-01T15:42:39.631Z,26.08
2022-12-01T15:45:12.458Z,24.83
2022-12-01T15:47:43.533Z,22.35
2022-12-01T15:52:58.240Z,13.35
2022-12-01T15:55:36.296Z,14.38
2022-12-01T15:58:08.074Z,14.68
2022-12-01T16:00:35.883Z,13.05
2022-12-01T16:03:03.337Z,15.73
2022-12-01T16:05:34.930Z,14.13
2022-12-01T16:08:20.147Z,12.13
2022-12-01T16:11:11.852Z,12.48
2022-12-01T16:13:50.003Z,17.67
2022-12-01T16:16:23.025Z,17.73
2022-12-01T16:19:05.992Z,15.02
2022-12-01T16:21:42.535Z,68.30
2022-12-01T16:24:15.927Z,89.47
2022-12-01T16:27:02.733Z,142.30
2022-12-01T16:29:33.948Z,94.57
2022-12-01T16:32:20.384Z,88.80
2022-12-01T16:34:48.990Z,51.33
2022-12-01T16:37:16.477Z,42.15
2022-12-01T16:39:43.386Z,44.67
2022-12-01T16:42:13.046Z,41.65
2022-12-01T16:44:40.300Z,39.88
2022-12-01T16:47:16.002Z,26.80
2022-12-01T16:49:42.885Z,34.55
2022-12-01T16:54:57.157Z,31.10
2022-12-01T16:57:24.034Z,25.42
2022-12-01T16:59:51.019Z,23.15
2022-12-01T17:02:18.292Z,19.48
2022-12-01T17:04:45.113Z,23.33
2022-12-01T17:07:11.912Z,20.33
2022-12-01T17:09:38.701Z,21.17
2022-12-01T17:12:05.932Z,17.80
2022-12-01T17:14:32.834Z,15.52
2022-12-01T17:16:59.558Z,14.88
2022-12-01T17:19:26.462Z,14.63
2022-12-01T17:21:53.323Z,13.82
2022-12-01T17:24:20.141Z,11.73
2022-12-01T17:26:46.830Z,12.07
2022-12-01T17:29:13.674Z,16.70
2022-12-01T17:31:40.474Z,25.30
2022-12-01T17:34:07.374Z,25.05
2022-12-01T17:36:34.604Z,17.10
2022-12-01T17:39:01.473Z,23.63
2022-12-01T17:41:32.548Z,24.58
2022-12-01T17:44:02.648Z,26.88
2022-12-01T17:46:30.263Z,25.65
2022-12-01T17:48:57.482Z,23.50
2022-12-01T17:51:24.395Z,44.15
2022-12-01T17:53:52.704Z,48.58
2022-12-01T17:56:19.447Z,35.78
2022-12-01T17:58:46.293Z,29.17
2022-12-01T18:01:19.176Z,23.02
2022-12-01T18:03:47.821Z,27.02
2022-12-01T18:06:15.669Z,29.70
2022-12-01T18:08:43.262Z,25.75
2022-12-01T18:11:14.115Z,23.27
2022-12-01T18:13:43.959Z,24.05
2022-12-01T18:16:22.529Z,22.77
2022-12-01T18:18:50.047Z,22.85
2022-12-01T18:21:19.463Z,24.63
2022-12-01T18:23:54.793Z,22.42
2022-12-01T18:26:22.957Z,23.20
2022-12-01T18:28:55.302Z,25.23
2022-12-01T18:31:22.421Z,21.50
2022-12-01T18:33:49.287Z,20.20
2022-12-01T18:36:19.012Z,25.95
2022-12-01T18:38:49.177Z,22.77
2022-12-01T18:41:19.258Z,26.33
2022-12-01T18:43:47.314Z,32.97
2022-12-01T18:46:15.892Z,45.47
2022-12-01T18:48:51.168Z,63.55
2022-12-01T18:51:19.191Z,60.42
2022-12-01T18:53:45.988Z,47.17
2022-12-01T18:56:15.212Z,43.85
2022-12-01T18:58:42.929Z,38.67
2022-12-01T19:01:22.156Z,36.83
2022-12-01T19:03:49.258Z,45.63
2022-12-01T19:06:16.973Z,45.67
2022-12-01T19:08:46.750Z,50.25
2022-12-01T19:11:13.862Z,48.65
2022-12-01T19:13:41.949Z,46.97
2022-12-01T19:16:14.193Z,39.85
2022-12-01T19:18:41.541Z,42.90
2022-12-01T19:21:10.464Z,48.22
2022-12-01T19:23:37.682Z,63.90
2022-12-01T19:26:10.839Z,57.30
2022-12-01T19:28:38.681Z,52.63
2022-12-01T19:31:11.236Z,56.15
2022-12-01T19:33:38.675Z,45.72
2022-12-01T19:36:14.759Z,51.97
2022-12-01T19:38:44.606Z,44.97
2022-12-01T19:41:13.413Z,39.55
2022-12-01T19:43:42.350Z,39.75
2022-12-01T19:46:11.996Z,37.22
2022-12-01T19:48:38.973Z,39.35
2022-12-01T19:51:06.555Z,41.08
2022-12-01T19:53:34.208Z,38.38
2022-12-01T19:56:03.120Z,37.03
2022-12-01T19:58:33.203Z,33.10
2022-12-01T20:01:09.071Z,35.35
2022-12-01T20:03:38.037Z,30.23
2022-12-01T20:06:07.704Z,43.15
2022-12-01T20:08:36.137Z,43.10
2022-12-01T20:11:04.409Z,45.53
2022-12-01T20:13:33.130Z,48.45
2022-12-01T20:16:14.668Z,41.20
2022-12-01T20:18:42.215Z,56.38
2022-12-01T20:21:20.578Z,47.20
2022-12-01T20:24:10.254Z,53.92
2022-12-01T20:26:40.526Z,37.53
2022-12-01T20:29:11.903Z,39.60
2022-12-01T20:31:39.943Z,41.95
2022-12-01T20:34:16.931Z,34.30
2022-12-01T20:36:44.898Z,30.33
2022-12-01T20:39:12.859Z,29.80
2022-12-01T20:41:44.014Z,30.38
2022-12-01T20:44:12.999Z,27.33
2022-12-01T20:46:41.723Z,29.52
2022-12-01T20:49:09.737Z,28.55
2022-12-01T20:51:36.579Z,26.55
2022-12-01T20:54:27.341Z,22.77
2022-12-01T20:56:53.246Z,35.05
2022-12-01T20:59:20.578Z,24.58
2022-12-01T21:01:48.396Z,26.48
2022-12-01T21:04:15.408Z,33.00
2022-12-01T21:06:42.404Z,31.05
2022-12-01T21:09:09.753Z,36.25
2022-12-01T21:12:05.614Z,31.27
2022-12-01T21:14:37.569Z,24.50
2022-12-01T21:17:19.056Z,28.23
2022-12-01T21:19:57.273Z,22.60
2022-12-01T21:22:25.651Z,23.40
2022-12-01T21:25:02.763Z,21.25
2022-12-01T21:27:29.942Z,28.42
2022-12-01T21:29:57.062Z,28.38
2022-12-01T21:32:33.377Z,20.00
2022-12-01T21:35:14.841Z,20.00
2022-12-01T21:37:41.668Z,19.83
2022-12-01T21:40:29.026Z,15.80
2022-12-01T21:42:58.792Z,17.90
2022-12-01T21:45:32.151Z,16.95
2022-12-01T21:48:16.047Z,21.17
2022-12-01T21:50:42.973Z,19.75
2022-12-01T21:53:20.457Z,26.13
2022-12-01T21:58:29.864Z,22.05
2022-12-01T22:00:59.069Z,22.92
2022-12-01T22:03:31.079Z,23.80
2022-12-01T22:09:01.011Z,25.88
2022-12-01T22:11:29.112Z,24.95
2022-12-01T22:14:16.772Z,19.55
2022-12-01T22:16:51.683Z,29.65
2022-12-01T22:19:26.748Z,22.45
2022-12-01T22:22:02.392Z,16.63
2022-12-01T22:24:44.356Z,23.70
2022-12-01T22:27:32.854Z,22.90
2022-12-01T22:30:18.519Z,21.20
2022-12-01T22:32:51.276Z,34.00
2022-12-01T22:35:21.247Z,69.32
2022-12-01T22:38:00.038Z,51.55
2022-12-01T22:40:51.438Z,45.92
2022-12-01T22:43:18.219Z,35.80
2022-12-01T22:45:49.119Z,26.40
2022-12-01T22:48:21.882Z,21.15
2022-12-01T22:50:51.719Z,19.02
2022-12-01T22:53:29.225Z,24.42
2022-12-01T22:56:00.084Z,18.80
2022-12-01T22:58:41.221Z,21.85
2022-12-01T23:01:19.707Z,19.48
2022-12-01T23:03:46.579Z,15.45
2022-12-01T23:06:49.255Z,21.35
2022-12-01T23:09:16.180Z,17.13
2022-12-01T23:11:44.232Z,17.48
2022-12-01T23:14:18.839Z,15.65
2022-12-01T23:16:45.621Z,15.25
2022-12-01T23:19:12.354Z,17.65
2022-12-01T23:21:39.339Z,16.48
2022-12-01T23:24:06.833Z,13.18
2022-12-01T23:26:33.778Z,14.30
2022-12-01T23:29:01.461Z,13.13
2022-12-01T23:31:29.303Z,13.60
2022-12-01T23:33:56.078Z,10.70
2022-12-01T23:36:28.654Z,11.32
2022-12-01T23:39:02.612Z,11.02
2022-12-01T23:41:48.738Z,9.88
2022-12-01T23:44:24.592Z,10.98
2022-12-01T23:46:53.848Z,16.08
2022-12-01T23:49:24.200Z,12.02
2022-12-01T23:51:53.867Z,12.63
2022-12-01T23:54:41.052Z,12.82
2022-12-01T23:57:21.449Z,7.80
2022-12-01T23:59:54.541Z,7.45
